Time;durP1;ratioP1;P1;durP2;ratioP2;P2;SDS_P1;SDS_P2;PMS_P1;PMS_P2;Temp;Humidity;BMP_temperature;BMP_pressure;BME280_temperature;BME280_humidity;BME280_pressure;Samples;Min_cycle;Max_cycle;Signal;HPM_P1;HPM_P2
2022/04/27 00:00:41;;;;;;;14.07;9.67;;;;;;;;;;2086734;28;20166;-52
2022/04/27 00:01:41;;;;;;;10.73;9.63;;;;;;;;;;2089306;28;20213;-50
2022/04/27 00:02:41;;;;;;;11.25;9.50;;;;;;;;;;2089642;28;20176;-52
2022/04/27 00:03:42;;;;;;;13.00;9.88;;;;;;;;;;2088823;28;20274;-50
2022/04/27 00:04:42;;;;;;;11.88;10.10;;;;;;;;;;2080055;28;20187;-50
2022/04/27 00:05:43;;;;;;;13.87;10.53;;;;;;;;;;2096302;28;20714;-47
2022/04/27 00:06:44;;;;;;;11.30;10.10;;;;;;;;;;2090306;28;20188;-49
2022/04/27 00:07:44;;;;;;;14.17;9.77;;;;;;;;;;2081248;28;20267;-50
2022/04/27 00:08:45;;;;;;;12.83;10.20;;;;;;;;;;2083865;28;20202;-49
2022/04/27 00:09:45;;;;;;;11.50;9.93;;;;;;;;;;2089439;28;20233;-48
2022/04/27 00:10:45;;;;;;;10.97;9.53;;;;;;;;;;2089724;28;20164;-47
2022/04/27 00:11:45;;;;;;;15.10;10.90;;;;;;;;;;2083500;28;20179;-49
2022/04/27 00:12:46;;;;;;;11.57;10.13;;;;;;;;;;2081980;28;20182;-53
2022/04/27 00:13:46;;;;;;;9.97;9.07;;;;;;;;;;2083377;28;20213;-50
2022/04/27 00:14:47;;;;;;;13.25;10.55;;;;;;;;;;2087318;28;20223;-51
2022/04/27 00:15:47;;;;;;;12.13;10.20;;;;;;;;;;2081775;28;20714;-50
2022/04/27 00:16:47;;;;;;;16.13;10.37;;;;;;;;;;2085249;28;20199;-46
2022/04/27 00:17:48;;;;;;;11.70;9.87;;;;;;;;;;2087847;28;20623;-48
2022/04/27 00:18:48;;;;;;;12.07;10.80;;;;;;;;;;2085131;28;20195;-52
2022/04/27 00:19:48;;;;;;;13.63;10.90;;;;;;;;;;2087001;28;20657;-49
2022/04/27 00:20:50;;;;;;;12.73;10.30;;;;;;;;;;2088239;28;20494;-50
2022/04/27 00:21:50;;;;;;;16.00;11.57;;;;;;;;;;2088616;28;20539;-51
2022/04/27 00:22:51;;;;;;;12.40;11.23;;;;;;;;;;2088614;28;20221;-48
2022/04/27 00:23:51;;;;;;;13.47;10.80;;;;;;;;;;2088808;28;20168;-48
2022/04/27 00:24:52;;;;;;;12.20;10.93;;;;;;;;;;2088581;28;20174;-50
2022/04/27 00:25:52;;;;;;;12.40;11.10;;;;;;;;;;2088995;28;20218;-48
2022/04/27 00:26:52;;;;;;;12.03;10.87;;;;;;;;;;2083788;28;20177;-49
2022/04/27 00:27:52;;;;;;;14.50;10.57;;;;;;;;;;2088616;28;20710;-50
2022/04/27 00:28:53;;;;;;;13.80;11.60;;;;;;;;;;2088152;28;20211;-51
2022/04/27 00:29:53;;;;;;;12.47;11.03;;;;;;;;;;2084141;28;20637;-50
2022/04/27 00:30:54;;;;;;;14.33;11.37;;;;;;;;;;2088775;28;20288;-49
2022/04/27 00:31:54;;;;;;;13.30;11.90;;;;;;;;;;2089003;28;20234;-52
2022/04/27 00:32:54;;;;;;;14.88;11.95;;;;;;;;;;2089033;28;20290;-51
2022/04/27 00:33:55;;;;;;;14.80;11.63;;;;;;;;;;2088551;28;20183;-55
2022/04/27 00:34:55;;;;;;;12.95;11.40;;;;;;;;;;2088376;28;20544;-53
2022/04/27 00:35:55;;;;;;;12.63;11.30;;;;;;;;;;2087460;28;20168;-50
2022/04/27 00:36:55;;;;;;;14.10;11.17;;;;;;;;;;2082971;28;20172;-52
2022/04/27 00:37:56;;;;;;;15.70;11.83;;;;;;;;;;2088693;28;20179;-47
2022/04/27 00:38:56;;;;;;;15.43;11.20;;;;;;;;;;2078855;28;20703;-51
2022/04/27 00:39:56;;;;;;;16.53;11.50;;;;;;;;;;2080049;28;20168;-49
2022/04/27 00:40:57;;;;;;;14.07;10.97;;;;;;;;;;2084578;28;20164;-49
2022/04/27 00:42:00;;;;;;;14.02;12.10;;;;;;;;;;2089741;28;20205;-51
2022/04/27 00:43:00;;;;;;;13.82;11.75;;;;;;;;;;2092950;28;20261;-52
2022/04/27 00:44:00;;;;;;;15.40;12.00;;;;;;;;;;2089620;28;20644;-49
2022/04/27 00:45:03;;;;;;;13.60;12.00;;;;;;;;;;2087244;28;20541;-47
2022/04/27 00:46:04;;;;;;;12.70;11.43;;;;;;;;;;2091001;28;20172;-53
2022/04/27 00:47:04;;;;;;;14.77;11.43;;;;;;;;;;2090395;28;20193;-52
2022/04/27 00:48:04;;;;;;;13.20;11.90;;;;;;;;;;2085564;28;20164;-53
2022/04/27 00:49:05;;;;;;;13.60;12.00;;;;;;;;;;2080534;28;20212;-49
2022/04/27 00:50:05;;;;;;;17.43;12.03;;;;;;;;;;2084756;28;20170;-49
2022/04/27 00:51:06;;;;;;;13.37;12.07;;;;;;;;;;2088919;28;20167;-51
2022/04/27 00:52:07;;;;;;;14.83;12.43;;;;;;;;;;2084494;28;20179;-51
2022/04/27 00:53:07;;;;;;;13.27;12.00;;;;;;;;;;2088161;28;20628;-49
2022/04/27 00:54:07;;;;;;;16.50;12.33;;;;;;;;;;2085330;28;20215;-49
2022/04/27 00:55:10;;;;;;;17.17;11.90;;;;;;;;;;2084457;28;20175;-50
2022/04/27 00:56:11;;;;;;;17.67;11.93;;;;;;;;;;2089143;28;20589;-49
2022/04/27 00:57:12;;;;;;;12.67;11.33;;;;;;;;;;2087704;28;20723;-50
2022/04/27 00:58:12;;;;;;;14.93;11.73;;;;;;;;;;2088925;28;20172;-47
2022/04/27 00:59:13;;;;;;;14.80;12.77;;;;;;;;;;2088143;28;20218;-50
2022/04/27 01:00:15;;;;;;;14.37;12.03;;;;;;;;;;2089080;28;20183;-48
2022/04/27 01:01:15;;;;;;;13.33;11.57;;;;;;;;;;2087089;28;20172;-47
2022/04/27 01:02:18;;;;;;;15.63;11.67;;;;;;;;;;2089101;28;20640;-49
2022/04/27 01:03:19;;;;;;;16.98;11.70;;;;;;;;;;2090557;28;20172;-48
2022/04/27 01:04:19;;;;;;;13.83;12.37;;;;;;;;;;2078887;28;20176;-49
2022/04/27 01:05:21;;;;;;;15.30;12.97;;;;;;;;;;2079919;28;20191;-54
2022/04/27 01:06:21;;;;;;;13.60;12.20;;;;;;;;;;2078831;28;20177;-54
2022/04/27 01:07:23;;;;;;;15.50;13.57;;;;;;;;;;2080561;28;20636;-51
2022/04/27 01:08:23;;;;;;;13.67;12.10;;;;;;;;;;2080698;28;20168;-52
2022/04/27 01:09:24;;;;;;;14.10;12.53;;;;;;;;;;2086961;28;20194;-53
2022/04/27 01:10:26;;;;;;;17.98;13.88;;;;;;;;;;2072804;28;20177;-48
2022/04/27 01:11:26;;;;;;;14.83;13.40;;;;;;;;;;2089079;28;20207;-49
2022/04/27 01:12:30;;;;;;;16.97;13.83;;;;;;;;;;2088618;28;20187;-51
2022/04/27 01:13:38;;;;;;;16.37;12.80;;;;;;;;;;2080725;28;20222;-50
2022/04/27 01:14:48;;;;;;;15.70;13.40;;;;;;;;;;2076629;28;20227;-48
2022/04/27 01:15:49;;;;;;;15.17;13.10;;;;;;;;;;2073860;28;20256;-50
2022/04/27 01:16:52;;;;;;;16.70;12.60;;;;;;;;;;2081881;28;20165;-48
2022/04/27 01:17:55;;;;;;;14.47;12.87;;;;;;;;;;2088290;28;20179;-50
2022/04/27 01:18:55;;;;;;;17.73;13.20;;;;;;;;;;2079620;28;20692;-48
2022/04/27 01:19:56;;;;;;;16.57;12.30;;;;;;;;;;2079575;28;20168;-49
2022/04/27 01:20:56;;;;;;;18.17;13.73;;;;;;;;;;2088399;28;20214;-48
2022/04/27 01:21:57;;;;;;;18.10;13.20;;;;;;;;;;2083794;28;20656;-50
2022/04/27 01:22:59;;;;;;;16.50;12.80;;;;;;;;;;2085507;28;20175;-50
2022/04/27 01:23:59;;;;;;;13.97;12.70;;;;;;;;;;2097006;28;20659;-46
2022/04/27 01:25:00;;;;;;;19.57;13.50;;;;;;;;;;2084274;28;20171;-49
2022/04/27 01:26:05;;;;;;;14.60;12.47;;;;;;;;;;2088157;28;20175;-52
2022/04/27 01:27:05;;;;;;;16.43;13.10;;;;;;;;;;2086085;28;20225;-51
2022/04/27 01:28:06;;;;;;;14.23;12.73;;;;;;;;;;2078303;28;20211;-48
2022/04/27 01:29:06;;;;;;;14.60;12.80;;;;;;;;;;2088140;28;20714;-49
2022/04/27 01:30:07;;;;;;;16.63;13.00;;;;;;;;;;2080898;28;20750;-52
2022/04/27 01:31:08;;;;;;;15.10;13.30;;;;;;;;;;2082295;28;20172;-48
2022/04/27 01:32:10;;;;;;;15.30;13.70;;;;;;;;;;2081038;28;20188;-50
2022/04/27 01:33:11;;;;;;;16.07;13.50;;;;;;;;;;2081600;28;20708;-49
2022/04/27 01:34:12;;;;;;;17.67;13.43;;;;;;;;;;2078675;28;20172;-48
2022/04/27 01:35:12;;;;;;;15.90;13.73;;;;;;;;;;2081628;28;20165;-49
2022/04/27 01:36:15;;;;;;;15.03;13.43;;;;;;;;;;2087175;28;20183;-49
2022/04/27 01:38:38;;;;;;;19.07;14.77;;;;;;;;;;2084590;28;20199;-48
2022/04/27 01:39:38;;;;;;;16.93;14.30;;;;;;;;;;2087164;28;20322;-52
2022/04/27 01:40:38;;;;;;;19.73;14.77;;;;;;;;;;2090753;28;20160;-50
2022/04/27 01:41:40;;;;;;;20.63;13.77;;;;;;;;;;2089621;28;20176;-51
2022/04/27 01:42:40;;;;;;;16.27;14.47;;;;;;;;;;2090115;28;20536;-48
2022/04/27 01:43:40;;;;;;;16.10;14.20;;;;;;;;;;2088924;28;20307;-49
2022/04/27 01:44:41;;;;;;;17.43;13.63;;;;;;;;;;2084536;28;20176;-49
2022/04/27 01:45:42;;;;;;;20.77;13.83;;;;;;;;;;2089375;28;20176;-49
2022/04/27 01:46:42;;;;;;;18.63;15.50;;;;;;;;;;2089594;28;20194;-50
2022/04/27 01:47:43;;;;;;;18.83;14.97;;;;;;;;;;2089905;28;20183;-49
2022/04/27 01:48:43;;;;;;;17.80;15.03;;;;;;;;;;2088939;28;20280;-48
2022/04/27 01:49:43;;;;;;;16.00;14.33;;;;;;;;;;2091655;22;20232;-51
2022/04/27 01:50:44;;;;;;;16.27;14.53;;;;;;;;;;2068833;28;20320;-50
2022/04/27 01:54:22;;;;;;;17.73;14.23;;;;;;;;;;2067757;28;20593;-52
2022/04/27 01:55:24;;;;;;;17.03;13.73;;;;;;;;;;2065199;28;20193;-50
2022/04/27 01:56:24;;;;;;;16.70;14.90;;;;;;;;;;2064677;28;20258;-51
2022/04/27 01:57:27;;;;;;;16.97;15.00;;;;;;;;;;2072762;28;20257;-51
2022/04/27 01:58:27;;;;;;;20.90;14.80;;;;;;;;;;2067523;28;20670;-51
2022/04/27 01:59:29;;;;;;;18.33;15.47;;;;;;;;;;2066241;28;20176;-50
2022/04/27 02:00:30;;;;;;;16.03;14.33;;;;;;;;;;2065310;28;20555;-51
2022/04/27 02:01:32;;;;;;;17.07;15.17;;;;;;;;;;2072906;28;20651;-51
2022/04/27 02:02:33;;;;;;;17.07;14.87;;;;;;;;;;2065009;28;20308;-53
2022/04/27 02:03:35;;;;;;;27.27;15.80;;;;;;;;;;2068399;28;20177;-50
2022/04/27 02:04:36;;;;;;;18.27;16.33;;;;;;;;;;2064367;28;20169;-53
2022/04/27 02:05:38;;;;;;;20.37;15.73;;;;;;;;;;2062061;28;20250;-51
2022/04/27 02:06:40;;;;;;;20.03;15.60;;;;;;;;;;2069616;28;20674;-51
2022/04/27 02:07:44;;;;;;;18.67;15.17;;;;;;;;;;2070163;28;20165;-52
2022/04/27 02:08:47;;;;;;;16.70;14.80;;;;;;;;;;2076608;28;20247;-53
2022/04/27 02:09:50;;;;;;;19.70;14.43;;;;;;;;;;2067836;28;20201;-52
2022/04/27 02:10:51;;;;;;;17.47;14.03;;;;;;;;;;2067050;28;20256;-53
2022/04/27 02:11:52;;;;;;;18.70;14.20;;;;;;;;;;2074798;28;20172;-50
2022/04/27 02:12:52;;;;;;;15.33;12.93;;;;;;;;;;2064831;28;20181;-50
2022/04/27 02:13:56;;;;;;;21.50;13.77;;;;;;;;;;2065183;28;20260;-53
2022/04/27 02:14:59;;;;;;;15.67;13.83;;;;;;;;;;2068881;28;20193;-51
2022/04/27 02:16:01;;;;;;;17.67;14.50;;;;;;;;;;2072568;28;20200;-52
2022/04/27 02:17:13;;;;;;;18.50;15.27;;;;;;;;;;2072521;28;20165;-52
2022/04/27 02:18:16;;;;;;;15.30;13.70;;;;;;;;;;2062500;28;20685;-52
2022/04/27 02:19:16;;;;;;;18.20;14.10;;;;;;;;;;2064146;28;20166;-52
2022/04/27 02:20:18;;;;;;;19.83;14.63;;;;;;;;;;2061670;28;20205;-52
2022/04/27 02:21:20;;;;;;;22.10;14.63;;;;;;;;;;2070967;28;20184;-51
2022/04/27 02:22:20;;;;;;;20.27;15.67;;;;;;;;;;2074813;28;20179;-51
2022/04/27 02:23:22;;;;;;;19.57;15.33;;;;;;;;;;2072511;28;20169;-51
2022/04/27 02:24:22;;;;;;;21.80;16.30;;;;;;;;;;2071796;28;20603;-51
2022/04/27 02:25:23;;;;;;;16.90;14.70;;;;;;;;;;2064261;28;20264;-53
2022/04/27 02:26:23;;;;;;;20.03;15.70;;;;;;;;;;2063797;28;20189;-53
2022/04/27 02:27:23;;;;;;;18.67;14.93;;;;;;;;;;2064798;28;20166;-50
2022/04/27 02:28:24;;;;;;;17.03;14.30;;;;;;;;;;2072625;28;20192;-54
2022/04/27 02:29:26;;;;;;;21.90;16.23;;;;;;;;;;2080340;28;20207;-52
2022/04/27 02:30:26;;;;;;;18.87;15.47;;;;;;;;;;2071301;28;20188;-54
2022/04/27 02:31:27;;;;;;;16.60;14.43;;;;;;;;;;2070990;28;20233;-52
2022/04/27 02:32:27;;;;;;;17.10;15.30;;;;;;;;;;2061112;28;20292;-52
2022/04/27 02:33:31;;;;;;;16.07;14.33;;;;;;;;;;2071987;28;20255;-52
2022/04/27 02:34:31;;;;;;;17.53;15.03;;;;;;;;;;2071371;28;20204;-52
2022/04/27 02:35:31;;;;;;;15.37;13.63;;;;;;;;;;2074802;28;20209;-55
2022/04/27 02:36:32;;;;;;;17.10;14.43;;;;;;;;;;2072667;28;20589;-49
2022/04/27 02:37:33;;;;;;;18.80;15.73;;;;;;;;;;2064568;28;20174;-50
2022/04/27 02:38:34;;;;;;;16.40;14.77;;;;;;;;;;2064365;28;20166;-51
2022/04/27 02:39:38;;;;;;;17.80;14.83;;;;;;;;;;2073127;28;20203;-52
2022/04/27 02:40:38;;;;;;;18.27;15.50;;;;;;;;;;2072635;28;20613;-53
2022/04/27 02:41:40;;;;;;;18.93;14.77;;;;;;;;;;2077326;28;20171;-53
2022/04/27 02:42:41;;;;;;;16.53;14.43;;;;;;;;;;2065586;28;20178;-52
2022/04/27 02:43:43;;;;;;;18.63;14.67;;;;;;;;;;2064547;28;20180;-52
2022/04/27 02:44:47;;;;;;;19.57;15.33;;;;;;;;;;2065173;28;20318;-54
2022/04/27 02:45:49;;;;;;;19.07;15.57;;;;;;;;;;2065128;28;20174;-53
2022/04/27 02:46:50;;;;;;;16.67;14.43;;;;;;;;;;2072749;28;20669;-55
2022/04/27 02:47:50;;;;;;;17.37;15.40;;;;;;;;;;2072947;28;20319;-56
2022/04/27 02:51:49;;;;;;;19.93;14.90;;;;;;;;;;2056329;28;20646;-55
2022/04/27 02:52:51;;;;;;;19.27;15.93;;;;;;;;;;2075573;28;20164;-54
2022/04/27 02:53:59;;;;;;;18.47;15.03;;;;;;;;;;2062651;28;20187;-51
2022/04/27 02:54:59;;;;;;;17.67;15.93;;;;;;;;;;2064425;28;20209;-53
2022/04/27 02:56:00;;;;;;;17.20;15.03;;;;;;;;;;2062184;28;20220;-54
2022/04/27 02:57:00;;;;;;;21.63;16.20;;;;;;;;;;2064545;28;20181;-51
2022/04/27 02:58:02;;;;;;;18.70;15.67;;;;;;;;;;2064090;28;20178;-51
2022/04/27 02:59:04;;;;;;;22.10;16.13;;;;;;;;;;2063576;28;20249;-55
2022/04/27 03:00:04;;;;;;;19.27;16.03;;;;;;;;;;2064297;28;20204;-51
2022/04/27 03:01:05;;;;;;;20.17;16.73;;;;;;;;;;2072364;28;20219;-51
2022/04/27 03:02:05;;;;;;;19.77;15.60;;;;;;;;;;2072520;28;20209;-50
2022/04/27 03:03:07;;;;;;;20.67;16.20;;;;;;;;;;2066294;28;20166;-54
2022/04/27 03:04:08;;;;;;;20.17;15.63;;;;;;;;;;2072115;28;20219;-53
2022/04/27 03:05:08;;;;;;;20.93;16.73;;;;;;;;;;2069289;28;20271;-52
2022/04/27 03:06:08;;;;;;;19.80;16.00;;;;;;;;;;2071897;28;20227;-50
2022/04/27 03:07:09;;;;;;;19.73;16.47;;;;;;;;;;2073066;28;20185;-50
2022/04/27 03:08:16;;;;;;;18.93;15.90;;;;;;;;;;2072408;28;20209;-50
2022/04/27 03:09:20;;;;;;;20.37;16.57;;;;;;;;;;2065071;28;20173;-51
2022/04/27 03:10:21;;;;;;;20.53;17.10;;;;;;;;;;2073156;28;20168;-53
2022/04/27 03:11:21;;;;;;;23.33;17.30;;;;;;;;;;2064822;28;20678;-55
2022/04/27 03:12:41;;;;;;;23.97;17.53;;;;;;;;;;2065613;28;20202;-50
2022/04/27 03:13:42;;;;;;;23.50;18.67;;;;;;;;;;2063538;28;20173;-51
2022/04/27 03:14:47;;;;;;;25.63;18.60;;;;;;;;;;2072882;28;20247;-53
2022/04/27 03:15:47;;;;;;;21.97;18.30;;;;;;;;;;2064584;28;20177;-50
2022/04/27 03:16:48;;;;;;;20.60;17.30;;;;;;;;;;2072540;28;20165;-51
2022/04/27 03:18:16;;;;;;;20.47;17.43;;;;;;;;;;2072381;28;20638;-51
2022/04/27 03:19:09;;;;;;;21.20;16.70;;;;;;;;;;2067003;28;20177;-54
2022/04/27 03:20:09;;;;;;;25.43;17.17;;;;;;;;;;2064211;28;20272;-51
2022/04/27 03:21:10;;;;;;;19.13;16.00;;;;;;;;;;2069193;28;20264;-52
2022/04/27 03:22:10;;;;;;;17.77;15.33;;;;;;;;;;2071787;28;20215;-50
2022/04/27 03:23:10;;;;;;;23.00;16.13;;;;;;;;;;2074017;28;20169;-53
2022/04/27 03:24:11;;;;;;;19.47;15.27;;;;;;;;;;2067622;28;20178;-50
2022/04/27 03:25:12;;;;;;;22.13;17.00;;;;;;;;;;2064813;28;20271;-50
2022/04/27 03:26:12;;;;;;;20.87;16.43;;;;;;;;;;2063506;28;20181;-53
2022/04/27 03:27:12;;;;;;;18.97;16.47;;;;;;;;;;2073058;28;20200;-49
2022/04/27 03:28:14;;;;;;;21.97;16.70;;;;;;;;;;2071984;28;20153;-51
2022/04/27 03:29:17;;;;;;;19.47;15.90;;;;;;;;;;2064141;28;20271;-53
2022/04/27 03:30:19;;;;;;;20.47;16.83;;;;;;;;;;2072425;28;20200;-50
2022/04/27 03:31:22;;;;;;;20.30;16.87;;;;;;;;;;2079847;28;20176;-51
2022/04/27 03:32:24;;;;;;;20.10;15.97;;;;;;;;;;2065606;28;20185;-50
2022/04/27 03:33:28;;;;;;;22.50;18.57;;;;;;;;;;2072038;28;20165;-51
2022/04/27 03:34:29;;;;;;;19.03;17.03;;;;;;;;;;2064002;28;20237;-53
2022/04/27 03:35:31;;;;;;;19.97;16.50;;;;;;;;;;2064342;28;20173;-53
2022/04/27 03:36:31;;;;;;;24.17;17.33;;;;;;;;;;2071279;28;20184;-52
2022/04/27 03:37:31;;;;;;;20.60;16.83;;;;;;;;;;2072072;28;20178;-52
2022/04/27 03:38:32;;;;;;;20.57;16.03;;;;;;;;;;2072629;28;20185;-53
2022/04/27 03:39:32;;;;;;;21.00;15.90;;;;;;;;;;2071695;28;20267;-52
2022/04/27 03:40:32;;;;;;;23.17;17.10;;;;;;;;;;2064010;28;20257;-51
2022/04/27 03:41:33;;;;;;;24.53;17.23;;;;;;;;;;2067912;28;20181;-51
2022/04/27 03:42:33;;;;;;;21.53;16.70;;;;;;;;;;2065050;28;20166;-51
2022/04/27 03:43:36;;;;;;;22.00;17.40;;;;;;;;;;2072333;28;20180;-51
2022/04/27 03:44:36;;;;;;;23.17;17.50;;;;;;;;;;2080730;28;20257;-52
2022/04/27 03:45:38;;;;;;;20.47;17.20;;;;;;;;;;2068675;28;20172;-51
2022/04/27 03:46:38;;;;;;;23.10;17.33;;;;;;;;;;2065094;28;20211;-50
2022/04/27 03:47:39;;;;;;;26.57;18.33;;;;;;;;;;2059848;28;20269;-51
2022/04/27 03:48:40;;;;;;;26.60;17.90;;;;;;;;;;2064107;28;20176;-52
2022/04/27 03:49:40;;;;;;;23.00;17.27;;;;;;;;;;2064016;28;20209;-51
2022/04/27 03:50:41;;;;;;;26.53;17.37;;;;;;;;;;2072577;28;20175;-53
2022/04/27 03:51:42;;;;;;;22.43;18.30;;;;;;;;;;2064051;28;20637;-51
2022/04/27 03:52:42;;;;;;;22.23;18.40;;;;;;;;;;2064066;28;20635;-52
2022/04/27 03:53:44;;;;;;;21.27;17.03;;;;;;;;;;2064215;28;20196;-54
2022/04/27 03:54:44;;;;;;;25.70;17.43;;;;;;;;;;2064150;28;20694;-54
2022/04/27 03:55:44;;;;;;;21.77;17.27;;;;;;;;;;2073428;28;20169;-51
2022/04/27 03:56:45;;;;;;;21.63;16.80;;;;;;;;;;2072259;28;20223;-50
2022/04/27 03:57:47;;;;;;;22.50;17.10;;;;;;;;;;2064799;28;20172;-50
2022/04/27 03:58:49;;;;;;;22.57;18.07;;;;;;;;;;2063800;28;20768;-52
2022/04/27 03:59:49;;;;;;;22.27;17.63;;;;;;;;;;2064567;28;20185;-53
2022/04/27 04:00:50;;;;;;;24.70;17.73;;;;;;;;;;2062534;28;20558;-50
2022/04/27 04:01:56;;;;;;;22.33;18.17;;;;;;;;;;2068288;28;20227;-54
2022/04/27 04:03:00;;;;;;;23.80;18.30;;;;;;;;;;2072179;28;20699;-50
2022/04/27 04:04:00;;;;;;;24.87;17.40;;;;;;;;;;2072743;28;20183;-49
2022/04/27 04:05:01;;;;;;;20.47;17.77;;;;;;;;;;2072092;28;20165;-53
2022/04/27 04:06:01;;;;;;;24.57;17.50;;;;;;;;;;2064533;28;20678;-51
2022/04/27 04:07:13;;;;;;;24.57;17.83;;;;;;;;;;2067303;28;20172;-50
2022/04/27 04:08:23;;;;;;;22.73;17.23;;;;;;;;;;2074346;28;20169;-51
2022/04/27 04:09:25;;;;;;;22.10;16.70;;;;;;;;;;2071770;28;20173;-50
2022/04/27 04:10:25;;;;;;;20.73;17.50;;;;;;;;;;2071941;28;20178;-54
2022/04/27 04:11:26;;;;;;;22.17;17.60;;;;;;;;;;2065007;28;20260;-50
2022/04/27 04:12:45;;;;;;;22.80;17.23;;;;;;;;;;2067295;28;20204;-52
2022/04/27 04:14:03;;;;;;;21.70;16.87;;;;;;;;;;2066735;28;20177;-52
2022/04/27 04:15:18;;;;;;;22.47;16.70;;;;;;;;;;2074940;28;20168;-50
2022/04/27 04:16:27;;;;;;;23.40;18.77;;;;;;;;;;2072262;28;20636;-52
2022/04/27 04:18:04;;;;;;;27.27;18.37;;;;;;;;;;2048177;28;20179;-51
2022/04/27 04:19:14;;;;;;;24.60;17.37;;;;;;;;;;2053135;28;20204;-52
2022/04/27 04:20:39;;;;;;;22.03;16.87;;;;;;;;;;2060896;28;20213;-53
2022/04/27 04:21:52;;;;;;;22.03;18.53;;;;;;;;;;2065188;28;20277;-55
2022/04/27 04:23:11;;;;;;;22.87;18.37;;;;;;;;;;2069094;28;20175;-52
2022/04/27 04:24:17;;;;;;;23.00;18.23;;;;;;;;;;2063591;28;20182;-52
2022/04/27 04:29:37;;;;;;;23.33;18.27;;;;;;;;;;2064590;28;20196;-53
2022/04/27 04:30:37;;;;;;;23.40;18.17;;;;;;;;;;2064767;28;20690;-54
2022/04/27 04:32:07;;;;;;;23.70;19.20;;;;;;;;;;2065878;28;20189;-51
2022/04/27 04:33:12;;;;;;;22.97;18.77;;;;;;;;;;2076954;28;20172;-51
2022/04/27 04:34:21;;;;;;;27.87;20.03;;;;;;;;;;2070033;28;20182;-53
2022/04/27 04:35:22;;;;;;;28.30;20.43;;;;;;;;;;2067536;28;20169;-51
2022/04/27 04:36:22;;;;;;;25.97;20.23;;;;;;;;;;2064967;28;20181;-51
2022/04/27 04:37:23;;;;;;;27.63;20.53;;;;;;;;;;2069473;28;20179;-53
2022/04/27 04:38:24;;;;;;;24.93;20.93;;;;;;;;;;2068640;28;20165;-52
2022/04/27 04:39:28;;;;;;;24.93;19.63;;;;;;;;;;2065115;28;20555;-54
2022/04/27 04:40:29;;;;;;;25.90;20.83;;;;;;;;;;2069063;28;20522;-51
2022/04/27 04:41:30;;;;;;;22.57;19.57;;;;;;;;;;2064542;28;20259;-51
2022/04/27 04:42:33;;;;;;;25.83;20.40;;;;;;;;;;2062722;28;20651;-51
2022/04/27 04:43:33;;;;;;;27.33;21.20;;;;;;;;;;2072471;28;20173;-51
2022/04/27 04:44:34;;;;;;;30.07;22.47;;;;;;;;;;2072218;28;20176;-54
2022/04/27 04:45:58;;;;;;;24.33;20.63;;;;;;;;;;2072980;28;20200;-52
2022/04/27 04:47:06;;;;;;;27.77;21.50;;;;;;;;;;2064751;28;20300;-51
2022/04/27 04:48:39;;;;;;;27.13;20.87;;;;;;;;;;2055348;28;20204;-50
2022/04/27 04:50:02;;;;;;;30.73;20.90;;;;;;;;;;2066529;28;20600;-49
2022/04/27 04:51:08;;;;;;;26.33;21.20;;;;;;;;;;2073046;28;20169;-50
2022/04/27 04:52:38;;;;;;;34.13;21.90;;;;;;;;;;2057034;28;20714;-49
2022/04/27 04:53:56;;;;;;;29.63;21.40;;;;;;;;;;2058289;28;20170;-49
2022/04/27 04:55:08;;;;;;;30.07;22.90;;;;;;;;;;2069413;28;20546;-49
2022/04/27 04:56:41;;;;;;;27.50;22.57;;;;;;;;;;2072057;28;20173;-51
2022/04/27 04:57:55;;;;;;;26.37;22.20;;;;;;;;;;2055922;28;20206;-48
2022/04/27 04:59:10;;;;;;;30.70;21.83;;;;;;;;;;2061745;28;20174;-49
2022/04/27 05:00:37;;;;;;;25.90;22.60;;;;;;;;;;2063960;28;20183;-52
2022/04/27 05:02:09;;;;;;;27.33;20.73;;;;;;;;;;2058752;28;20532;-52
2022/04/27 05:03:24;;;;;;;29.47;21.83;;;;;;;;;;2071782;28;20187;-50
2022/04/27 05:04:43;;;;;;;30.07;22.20;;;;;;;;;;2067530;28;20158;-53
2022/04/27 05:06:10;;;;;;;26.17;21.50;;;;;;;;;;2059174;28;20186;-51
2022/04/27 05:07:37;;;;;;;23.60;20.37;;;;;;;;;;2055556;28;20216;-51
2022/04/27 05:08:55;;;;;;;27.97;20.47;;;;;;;;;;2075971;28;20639;-49
2022/04/27 05:10:16;;;;;;;23.67;20.80;;;;;;;;;;2070572;28;20172;-51
2022/04/27 05:11:40;;;;;;;25.13;20.00;;;;;;;;;;2051452;28;20198;-52
2022/04/27 05:12:58;;;;;;;26.37;19.90;;;;;;;;;;2073991;28;20176;-53
2022/04/27 05:14:24;;;;;;;24.83;20.93;;;;;;;;;;2072148;28;20177;-53
2022/04/27 05:15:53;;;;;;;26.37;20.63;;;;;;;;;;2075521;28;20185;-56
2022/04/27 05:17:14;;;;;;;28.00;21.27;;;;;;;;;;2074228;28;20177;-56
2022/04/27 05:18:35;;;;;;;25.73;21.97;;;;;;;;;;2074348;28;20752;-55
2022/04/27 05:20:01;;;;;;;33.53;22.33;;;;;;;;;;2072983;28;20755;-56
2022/04/27 05:21:21;;;;;;;28.50;21.27;;;;;;;;;;2076432;28;20603;-54
2022/04/27 05:22:40;;;;;;;24.77;20.17;;;;;;;;;;2078111;28;20250;-50
2022/04/27 05:23:55;;;;;;;27.47;22.00;;;;;;;;;;2072162;28;20184;-53
2022/04/27 05:25:21;;;;;;;26.53;21.50;;;;;;;;;;2074300;28;20165;-53
2022/04/27 05:26:44;;;;;;;28.60;21.73;;;;;;;;;;2079612;28;20180;-50
2022/04/27 05:28:03;;;;;;;28.77;21.83;;;;;;;;;;2076988;28;20177;-55
2022/04/27 05:32:41;;;;;;;33.53;22.80;;;;;;;;;;2076443;28;20153;-53
2022/04/27 05:34:11;;;;;;;29.33;23.17;;;;;;;;;;2065929;28;20600;-51
2022/04/27 05:35:14;;;;;;;37.87;24.63;;;;;;;;;;2059388;28;20590;-53
2022/04/27 05:36:37;;;;;;;31.10;24.30;;;;;;;;;;2071574;28;20176;-53
2022/04/27 05:37:48;;;;;;;30.10;25.93;;;;;;;;;;2068581;28;20650;-54
2022/04/27 05:38:58;;;;;;;37.93;26.13;;;;;;;;;;2066513;28;20216;-55
2022/04/27 05:40:18;;;;;;;37.93;25.80;;;;;;;;;;2070813;28;20168;-54
2022/04/27 05:41:45;;;;;;;37.10;27.73;;;;;;;;;;2070442;28;20580;-53
2022/04/27 05:43:05;;;;;;;34.23;25.50;;;;;;;;;;2074280;28;20595;-52
2022/04/27 05:44:19;;;;;;;33.27;23.97;;;;;;;;;;2074053;28;20234;-53
2022/04/27 05:45:38;;;;;;;34.30;24.90;;;;;;;;;;2074173;28;20169;-50
2022/04/27 05:47:08;;;;;;;26.97;23.77;;;;;;;;;;2067578;28;20176;-53
2022/04/27 05:48:28;;;;;;;34.43;24.77;;;;;;;;;;2076570;28;20174;-52
2022/04/27 05:50:01;;;;;;;39.63;26.53;;;;;;;;;;2072977;28;20225;-53
2022/04/27 05:51:10;;;;;;;38.90;27.63;;;;;;;;;;2074407;28;20670;-51
2022/04/27 05:52:24;;;;;;;36.00;25.05;;;;;;;;;;2069163;28;20181;-50
2022/04/27 05:53:49;;;;;;;31.33;25.73;;;;;;;;;;2069536;28;20310;-52
2022/04/27 05:55:22;;;;;;;32.13;26.27;;;;;;;;;;2057555;28;20194;-52
2022/04/27 05:56:49;;;;;;;36.97;28.43;;;;;;;;;;2076535;28;20225;-51
2022/04/27 05:58:12;;;;;;;35.92;26.17;;;;;;;;;;2073588;28;20169;-53
2022/04/27 05:59:39;;;;;;;39.63;27.60;;;;;;;;;;2059063;28;20201;-52
2022/04/27 06:00:46;;;;;;;37.53;27.30;;;;;;;;;;2073614;28;20195;-51
2022/04/27 06:02:04;;;;;;;35.72;26.77;;;;;;;;;;2078022;28;20707;-49
2022/04/27 06:03:05;;;;;;;42.63;29.30;;;;;;;;;;2077871;28;20187;-50
2022/04/27 06:04:06;;;;;;;36.42;27.00;;;;;;;;;;2075737;28;20636;-53
2022/04/27 06:05:13;;;;;;;37.35;27.70;;;;;;;;;;2069169;28;20264;-50
2022/04/27 06:06:15;;;;;;;36.33;28.13;;;;;;;;;;2075861;28;20173;-55
2022/04/27 06:07:15;;;;;;;41.00;28.73;;;;;;;;;;2078176;28;20164;-50
2022/04/27 06:08:16;;;;;;;34.03;28.40;;;;;;;;;;2077856;28;20172;-53
2022/04/27 06:09:16;;;;;;;41.37;30.67;;;;;;;;;;2074022;28;20646;-50
2022/04/27 06:10:36;;;;;;;36.22;29.15;;;;;;;;;;2059238;28;20182;-48
2022/04/27 06:11:37;;;;;;;33.67;26.67;;;;;;;;;;2070040;28;20319;-54
2022/04/27 06:12:55;;;;;;;33.33;28.30;;;;;;;;;;2078084;28;20178;-53
2022/04/27 06:14:20;;;;;;;68.03;30.48;;;;;;;;;;2070941;28;20287;-52
2022/04/27 06:15:24;;;;;;;46.03;29.60;;;;;;;;;;2069439;28;20170;-50
2022/04/27 06:16:33;;;;;;;37.22;27.90;;;;;;;;;;2073281;28;20219;-50
2022/04/27 06:17:39;;;;;;;38.53;28.83;;;;;;;;;;2079354;28;20356;-50
2022/04/27 06:18:40;;;;;;;34.92;27.13;;;;;;;;;;2060140;28;20178;-53
2022/04/27 06:19:44;;;;;;;35.63;26.98;;;;;;;;;;2065171;28;20178;-51
2022/04/27 06:20:47;;;;;;;32.58;27.23;;;;;;;;;;2064596;28;20172;-49
2022/04/27 06:21:47;;;;;;;31.15;25.83;;;;;;;;;;2058400;28;20178;-50
2022/04/27 06:22:49;;;;;;;30.90;25.42;;;;;;;;;;2061376;28;20591;-51
2022/04/27 06:23:50;;;;;;;35.60;25.27;;;;;;;;;;2065480;28;20643;-53
2022/04/27 06:24:50;;;;;;;35.85;25.15;;;;;;;;;;2064191;28;20232;-53
2022/04/27 06:26:11;;;;;;;30.77;23.98;;;;;;;;;;2061823;28;20709;-49
2022/04/27 06:27:16;;;;;;;27.80;22.73;;;;;;;;;;2073358;28;20180;-48
2022/04/27 06:28:17;;;;;;;36.05;24.83;;;;;;;;;;2073578;28;20276;-53
2022/04/27 06:29:17;;;;;;;32.93;26.13;;;;;;;;;;2062376;28;20182;-50
2022/04/27 06:30:21;;;;;;;31.75;25.10;;;;;;;;;;2063624;28;20634;-53
2022/04/27 06:31:22;;;;;;;29.60;24.48;;;;;;;;;;2064635;28;20177;-51
2022/04/27 06:32:29;;;;;;;38.50;25.33;;;;;;;;;;2069187;28;20603;-50
2022/04/27 06:33:33;;;;;;;32.60;25.08;;;;;;;;;;2073685;28;20216;-51
2022/04/27 06:34:35;;;;;;;25.88;22.75;;;;;;;;;;2069733;28;20196;-50
2022/04/27 06:35:37;;;;;;;35.50;24.30;;;;;;;;;;2072699;28;20736;-52